createdAt,value
2023-02-06T00:22:44.674Z,16.9
2023-02-06T00:32:45.018Z,16.9
2023-02-06T00:42:45.553Z,16.8
2023-02-06T00:52:46.177Z,16.8
2023-02-06T01:02:47.189Z,16.8
2023-02-06T01:12:47.688Z,16.8
2023-02-06T01:22:48.348Z,16.8
2023-02-06T01:32:48.771Z,16.8
2023-02-06T01:42:49.588Z,16.8
2023-02-06T01:52:49.716Z,16.8
2023-02-06T02:02:50.305Z,16.8
2023-02-06T02:12:51.190Z,16.8
2023-02-06T02:22:51.821Z,16.8
2023-02-06T02:32:52.341Z,16.8
2023-02-06T02:42:52.685Z,16.8
2023-02-06T02:52:53.564Z,16.8
2023-02-06T03:02:54.331Z,16.8
2023-02-06T03:12:55.136Z,16.8
2023-02-06T03:22:56.138Z,16.8
2023-02-06T03:32:57.120Z,16.8
2023-02-06T03:42:58.010Z,16.8
2023-02-06T03:52:58.196Z,16.8
2023-02-06T04:02:58.694Z,16.8
2023-02-06T04:12:59.413Z,16.8
2023-02-06T04:22:59.582Z,16.8
2023-02-06T04:33:00.266Z,16.8
2023-02-06T04:43:01.010Z,16.8
2023-02-06T04:53:01.165Z,16.8
2023-02-06T05:03:01.952Z,16.7
2023-02-06T05:13:02.764Z,16.7
2023-02-06T05:23:03.698Z,16.7
2023-02-06T05:33:04.562Z,16.8
2023-02-06T05:53:06.591Z,16.8
2023-02-06T06:03:07.055Z,16.8
2023-02-06T06:13:07.695Z,16.8
2023-02-06T06:23:08.501Z,16.8
2023-02-06T06:33:08.630Z,16.8
2023-02-06T06:43:08.896Z,16.9
2023-02-06T07:03:10.114Z,16.9
2023-02-06T07:13:10.973Z,16.9
2023-02-06T07:23:11.992Z,16.9
2023-02-06T07:33:12.434Z,16.9
2023-02-06T07:43:12.664Z,17
2023-02-06T07:53:13.323Z,17
2023-02-06T08:03:13.555Z,17
2023-02-06T08:13:14.324Z,17
2023-02-06T08:23:15.332Z,17
2023-02-06T08:33:15.970Z,17
2023-02-06T08:43:16.090Z,17.2
2023-02-06T08:53:16.658Z,17.4
2023-02-06T09:03:17.006Z,17.4
2023-02-06T09:13:17.306Z,15.8
2023-02-06T09:23:18.275Z,14.9
2023-02-06T09:33:18.478Z,13.8
2023-02-06T09:53:19.923Z,14.9
2023-02-06T10:03:19.995Z,15.2
2023-02-06T10:13:20.372Z,15.4
2023-02-06T10:33:25.444Z,15.5
2023-02-06T10:43:22.648Z,15.6
2023-02-06T10:53:23.607Z,15.6
2023-02-06T10:53:45.616Z,15.6
2023-02-06T11:03:29.827Z,15.7
2023-02-06T11:13:30.516Z,16
2023-02-06T11:23:31.147Z,16.1
2023-02-06T11:33:32.191Z,16.4
2023-02-06T11:43:33.115Z,16.7
2023-02-06T11:53:33.574Z,16.4
2023-02-06T12:03:34.289Z,16.3
2023-02-06T12:13:34.579Z,16.2
2023-02-06T12:23:34.779Z,16.1
2023-02-06T12:33:35.810Z,16
2023-02-06T12:43:35.722Z,16
2023-02-06T12:53:35.912Z,16
2023-02-06T13:03:36.815Z,16
2023-02-06T13:13:37.698Z,16.4
2023-02-06T13:33:38.803Z,16.7
2023-02-06T13:43:39.157Z,16.7
2023-02-06T13:53:39.682Z,16.5
2023-02-06T14:03:40.240Z,16.4
2023-02-06T14:13:41.279Z,16.3
2023-02-06T14:23:41.900Z,16.2
2023-02-06T14:33:42.569Z,16.2
2023-02-06T14:43:43.181Z,16.1
2023-02-06T14:53:44.143Z,16.1
2023-02-06T15:03:44.779Z,16
2023-02-06T15:13:45.708Z,16
2023-02-06T15:23:46.347Z,16
2023-02-06T15:33:47.190Z,16
2023-02-06T15:43:47.692Z,15.9
2023-02-06T15:53:48.632Z,15.9
2023-02-06T16:03:47.949Z,15.8
2023-02-06T16:13:48.622Z,16
2023-02-06T16:23:48.788Z,16.2
2023-02-06T16:33:49.388Z,16.2
2023-02-06T16:43:49.551Z,16.1
2023-02-06T16:53:49.896Z,16
2023-02-06T17:03:50.725Z,15.8
2023-02-06T17:13:51.657Z,15.9
2023-02-06T17:23:52.182Z,16.1
2023-02-06T17:33:53.061Z,16.4
2023-02-06T17:43:53.973Z,16.5
2023-02-06T17:53:54.944Z,16.6
2023-02-06T18:03:55.343Z,16.7
2023-02-06T18:13:55.568Z,16.7
2023-02-06T18:23:55.819Z,16.8
2023-02-06T18:33:56.758Z,16.8
2023-02-06T18:43:57.439Z,16.9
2023-02-06T18:53:58.386Z,16.9
2023-02-06T19:03:58.601Z,17
2023-02-06T19:13:59.621Z,17
2023-02-06T19:24:00.028Z,17
2023-02-06T19:34:00.611Z,17
2023-02-06T19:44:00.826Z,17
2023-02-06T19:54:01.062Z,17
2023-02-06T20:04:01.796Z,17
2023-02-06T20:14:02.110Z,17.1
2023-02-06T20:24:02.684Z,17.1
2023-02-06T20:34:02.909Z,17.1
2023-02-06T20:44:03.702Z,17.1
2023-02-06T20:54:03.726Z,17.1
2023-02-06T21:04:04.608Z,17.1
2023-02-06T21:14:05.305Z,17.1
2023-02-06T21:24:06.286Z,17.1
2023-02-06T21:34:06.966Z,17.1
2023-02-06T21:44:07.397Z,17.1
2023-02-06T21:54:08.317Z,17.2
2023-02-06T22:04:08.595Z,17.2
2023-02-06T22:24:09.825Z,17.2
2023-02-06T22:34:10.720Z,17.2
2023-02-06T22:44:11.036Z,17.2
2023-02-06T22:54:11.947Z,17.2
2023-02-06T23:04:12.708Z,17.2
2023-02-06T23:14:13.464Z,17.2
2023-02-06T23:24:13.570Z,17.2
2023-02-06T23:34:14.520Z,17.2
2023-02-06T23:44:14.919Z,17.2
2023-02-06T23:54:15.682Z,17.2
